Česky Dansk Deutsch English Español Suomi Français Magyar Italiano Nederlands norsk Polski Português svenska Türkçe

 

Het Weer

Francistown (Botswana)

17:00, 10 augustus 2016 (GMT)

NWNNE
WE
SWSSE
Home            
Francistown Selebi Phikwe Bulawayo Airport Sua-Pan Letlhakane Ellisras Beitbridge Hwange National Park Gweru Pietersburg Pietersburg Civil Gokwe Seretse Khama International Airport Masvingo Victoria Falls Binga Tzaneen Livingstone Buffalo Range Maun Kasane Jwaneng Phalaborwa

Om een weerknop op uw website of weblog te plaatsen, copieer onderstaande code en plak die in uw pagina. In het eerste vakje staat HTML-code, in het tweede vakje UBB-code.


Add to Google

Details

Wind speed:2 bf, 6 kn, 3.1 m/s, 6.9 miles/h, 11.1 km/h
Wind direction:SE, 130°
Visibility:Greater than 10000 m, 10 km, 32800 ft, 6.2 miles
Clouds:CAVOC
Temperature:17°C, 63°F
Dew-point:-3°C, 27°F
Atmospheric pressure:1026 hPa, 769.6 mmHg, 30.30 inHg, 1.013 atm
Relative humidity:25.3 %
METAR:FBFT 101700Z 13006KT CAVOK 17/M03 Q1026

Snelkoppelingen

Actuele weersinformatie van de hele wereld. Voeg locaties toe met het plus (+) symbool. Deze snelkoppelingen kunnen worden toegevoegd aan Google.

Lid van de Technetium groep

website free tracking
StatCounter NetStat W3C Validator

21-10-2020 01:13:51
astro.technetium.be money.technetium.be phote.technetium.be tafeltennistafel.technetium.be www.ligfiets.net